sensor_id;sensor_type;location;lat;lon;timestamp;temperature;humidity
8666;DHT22;4370;48.916;8.380;2022-08-19T00:00:04;19.10;99.90
8666;DHT22;4370;48.916;8.380;2022-08-19T00:04:58;19.20;99.90
8666;DHT22;4370;48.916;8.380;2022-08-19T00:07:23;19.30;99.90
8666;DHT22;4370;48.916;8.380;2022-08-19T00:09:49;19.00;99.90
8666;DHT22;4370;48.916;8.380;2022-08-19T00:12:14;19.10;99.90
8666;DHT22;4370;48.916;8.380;2022-08-19T00:14:41;19.10;99.90
8666;DHT22;4370;48.916;8.380;2022-08-19T00:17:08;19.10;99.90
8666;DHT22;4370;48.916;8.380;2022-08-19T00:19:35;19.10;99.90
8666;DHT22;4370;48.916;8.380;2022-08-19T00:24:28;19.20;99.90
8666;DHT22;4370;48.916;8.380;2022-08-19T00:26:55;19.20;99.90
8666;DHT22;4370;48.916;8.380;2022-08-19T00:29:23;19.20;99.90
8666;DHT22;4370;48.916;8.380;2022-08-19T00:31:49;19.00;99.90
8666;DHT22;4370;48.916;8.380;2022-08-19T00:34:18;19.40;99.90
8666;DHT22;4370;48.916;8.380;2022-08-19T00:36:44;19.40;99.90
8666;DHT22;4370;48.916;8.380;2022-08-19T00:39:10;19.40;99.90
8666;DHT22;4370;48.916;8.380;2022-08-19T00:41:36;19.60;99.90
8666;DHT22;4370;48.916;8.380;2022-08-19T00:46:31;19.90;99.90
8666;DHT22;4370;48.916;8.380;2022-08-19T00:48:59;19.80;99.90
8666;DHT22;4370;48.916;8.380;2022-08-19T00:51:27;20.00;99.90
8666;DHT22;4370;48.916;8.380;2022-08-19T00:53:55;20.00;99.90
8666;DHT22;4370;48.916;8.380;2022-08-19T00:56:22;20.00;99.90
8666;DHT22;4370;48.916;8.380;2022-08-19T00:58:50;20.20;99.90
8666;DHT22;4370;48.916;8.380;2022-08-19T01:01:17;20.10;99.90
8666;DHT22;4370;48.916;8.380;2022-08-19T01:03:43;20.10;99.90
8666;DHT22;4370;48.916;8.380;2022-08-19T01:08:36;20.20;99.90
8666;DHT22;4370;48.916;8.380;2022-08-19T01:11:04;20.10;99.90
8666;DHT22;4370;48.916;8.380;2022-08-19T01:13:33;20.20;99.90
8666;DHT22;4370;48.916;8.380;2022-08-19T01:16:05;20.10;99.90
8666;DHT22;4370;48.916;8.380;2022-08-19T01:18:32;20.20;99.90
8666;DHT22;4370;48.916;8.380;2022-08-19T01:21:05;20.30;99.90
8666;DHT22;4370;48.916;8.380;2022-08-19T01:23:32;20.20;99.90
8666;DHT22;4370;48.916;8.380;2022-08-19T01:26:21;20.20;99.90
8666;DHT22;4370;48.916;8.380;2022-08-19T01:28:49;20.20;99.90
8666;DHT22;4370;48.916;8.380;2022-08-19T01:31:22;20.20;99.90
8666;DHT22;4370;48.916;8.380;2022-08-19T01:33:49;20.10;99.90
8666;DHT22;4370;48.916;8.380;2022-08-19T01:36:45;20.10;99.90
8666;DHT22;4370;48.916;8.380;2022-08-19T01:39:13;20.10;99.90
8666;DHT22;4370;48.916;8.380;2022-08-19T01:41:40;20.10;99.90
8666;DHT22;4370;48.916;8.380;2022-08-19T01:44:07;19.90;99.90
8666;DHT22;4370;48.916;8.380;2022-08-19T01:46:33;20.00;99.90
8666;DHT22;4370;48.916;8.380;2022-08-19T01:48:59;19.40;99.90
8666;DHT22;4370;48.916;8.380;2022-08-19T01:51:24;20.00;99.90
8666;DHT22;4370;48.916;8.380;2022-08-19T01:56:18;19.90;99.90
8666;DHT22;4370;48.916;8.380;2022-08-19T01:59:08;19.80;99.90
8666;DHT22;4370;48.916;8.380;2022-08-19T02:04:02;19.80;99.90
8666;DHT22;4370;48.916;8.380;2022-08-19T02:06:29;19.80;99.90
8666;DHT22;4370;48.916;8.380;2022-08-19T02:08:55;19.80;99.90
8666;DHT22;4370;48.916;8.380;2022-08-19T02:11:24;19.80;99.90
8666;DHT22;4370;48.916;8.380;2022-08-19T02:13:52;19.10;99.90
8666;DHT22;4370;48.916;8.380;2022-08-19T02:16:18;19.00;99.90
8666;DHT22;4370;48.916;8.380;2022-08-19T02:21:11;19.70;99.90
8666;DHT22;4370;48.916;8.380;2022-08-19T02:23:38;19.70;99.90
8666;DHT22;4370;48.916;8.380;2022-08-19T02:26:04;19.80;99.90
8666;DHT22;4370;48.916;8.380;2022-08-19T02:28:29;19.70;99.90
8666;DHT22;4370;48.916;8.380;2022-08-19T02:30:55;19.70;99.90
8666;DHT22;4370;48.916;8.380;2022-08-19T02:33:20;19.70;99.90
8666;DHT22;4370;48.916;8.380;2022-08-19T02:35:46;19.70;99.90
8666;DHT22;4370;48.916;8.380;2022-08-19T02:38:15;19.70;99.90
8666;DHT22;4370;48.916;8.380;2022-08-19T02:40:59;19.80;99.90
8666;DHT22;4370;48.916;8.380;2022-08-19T02:43:28;20.00;99.90
8666;DHT22;4370;48.916;8.380;2022-08-19T02:45:54;19.80;99.90
8666;DHT22;4370;48.916;8.380;2022-08-19T02:48:21;19.80;99.90
8666;DHT22;4370;48.916;8.380;2022-08-19T02:50:49;19.90;99.90
8666;DHT22;4370;48.916;8.380;2022-08-19T02:53:22;19.20;99.90
8666;DHT22;4370;48.916;8.380;2022-08-19T02:55:48;19.50;99.90
8666;DHT22;4370;48.916;8.380;2022-08-19T02:58:15;19.30;99.90
8666;DHT22;4370;48.916;8.380;2022-08-19T03:00:54;19.70;99.90
8666;DHT22;4370;48.916;8.380;2022-08-19T03:03:21;19.90;99.90
8666;DHT22;4370;48.916;8.380;2022-08-19T03:05:48;19.90;99.90
8666;DHT22;4370;48.916;8.380;2022-08-19T03:10:45;19.80;99.90
8666;DHT22;4370;48.916;8.380;2022-08-19T03:13:17;19.70;99.90
8666;DHT22;4370;48.916;8.380;2022-08-19T03:15:44;20.00;99.90
8666;DHT22;4370;48.916;8.380;2022-08-19T03:18:11;19.80;99.90
8666;DHT22;4370;48.916;8.380;2022-08-19T03:20:50;19.80;99.90
8666;DHT22;4370;48.916;8.380;2022-08-19T03:23:18;20.00;99.90
8666;DHT22;4370;48.916;8.380;2022-08-19T03:25:46;20.00;99.90
8666;DHT22;4370;48.916;8.380;2022-08-19T03:28:14;20.20;99.90
8666;DHT22;4370;48.916;8.380;2022-08-19T03:30:41;20.10;99.90
8666;DHT22;4370;48.916;8.380;2022-08-19T03:33:08;20.30;99.90
8666;DHT22;4370;48.916;8.380;2022-08-19T03:35:35;21.50;99.90
8666;DHT22;4370;48.916;8.380;2022-08-19T03:38:04;20.10;99.90
8666;DHT22;4370;48.916;8.380;2022-08-19T03:42:57;20.20;99.90
8666;DHT22;4370;48.916;8.380;2022-08-19T03:45:23;19.90;99.90
8666;DHT22;4370;48.916;8.380;2022-08-19T03:47:49;19.30;99.90
8666;DHT22;4370;48.916;8.380;2022-08-19T03:50:16;19.80;99.90
8666;DHT22;4370;48.916;8.380;2022-08-19T03:52:47;19.90;99.90
8666;DHT22;4370;48.916;8.380;2022-08-19T03:57:40;19.90;99.90
8666;DHT22;4370;48.916;8.380;2022-08-19T04:00:07;19.70;99.90
8666;DHT22;4370;48.916;8.380;2022-08-19T04:02:33;19.80;99.90
8666;DHT22;4370;48.916;8.380;2022-08-19T04:04:58;19.50;99.90
8666;DHT22;4370;48.916;8.380;2022-08-19T04:07:24;19.70;99.90
8666;DHT22;4370;48.916;8.380;2022-08-19T04:12:17;19.60;99.90
8666;DHT22;4370;48.916;8.380;2022-08-19T04:14:46;19.40;99.90
8666;DHT22;4370;48.916;8.380;2022-08-19T04:17:12;19.50;99.90
8666;DHT22;4370;48.916;8.380;2022-08-19T04:19:40;19.50;99.90
8666;DHT22;4370;48.916;8.380;2022-08-19T04:22:08;19.40;99.90
8666;DHT22;4370;48.916;8.380;2022-08-19T04:24:36;19.70;99.90
8666;DHT22;4370;48.916;8.380;2022-08-19T04:27:03;19.40;99.90
8666;DHT22;4370;48.916;8.380;2022-08-19T04:29:29;19.40;99.90
8666;DHT22;4370;48.916;8.380;2022-08-19T04:31:56;19.40;99.90
8666;DHT22;4370;48.916;8.380;2022-08-19T04:34:24;22.50;99.90
8666;DHT22;4370;48.916;8.380;2022-08-19T04:36:52;19.60;99.90
8666;DHT22;4370;48.916;8.380;2022-08-19T04:39:30;19.40;99.90
8666;DHT22;4370;48.916;8.380;2022-08-19T04:42:17;19.40;99.90
8666;DHT22;4370;48.916;8.380;2022-08-19T04:45:05;18.80;99.90
8666;DHT22;4370;48.916;8.380;2022-08-19T04:47:31;19.40;99.90
8666;DHT22;4370;48.916;8.380;2022-08-19T04:49:57;19.40;99.90
8666;DHT22;4370;48.916;8.380;2022-08-19T04:54:49;19.50;99.90
8666;DHT22;4370;48.916;8.380;2022-08-19T04:59:40;19.60;99.90
8666;DHT22;4370;48.916;8.380;2022-08-19T05:02:09;20.50;99.90
8666;DHT22;4370;48.916;8.380;2022-08-19T05:04:34;19.70;99.90
8666;DHT22;4370;48.916;8.380;2022-08-19T05:07:03;19.40;99.90
8666;DHT22;4370;48.916;8.380;2022-08-19T05:09:29;20.00;99.90
8666;DHT22;4370;48.916;8.380;2022-08-19T05:11:55;19.90;99.90
8666;DHT22;4370;48.916;8.380;2022-08-19T05:16:47;20.20;99.90
8666;DHT22;4370;48.916;8.380;2022-08-19T05:19:13;19.70;99.90
8666;DHT22;4370;48.916;8.380;2022-08-19T05:21:59;20.20;99.90
8666;DHT22;4370;48.916;8.380;2022-08-19T05:24:44;20.20;99.90
8666;DHT22;4370;48.916;8.380;2022-08-19T05:27:10;20.30;99.90
8666;DHT22;4370;48.916;8.380;2022-08-19T05:29:37;20.40;99.90
8666;DHT22;4370;48.916;8.380;2022-08-19T05:32:04;20.40;99.90
8666;DHT22;4370;48.916;8.380;2022-08-19T05:34:30;20.40;99.90
8666;DHT22;4370;48.916;8.380;2022-08-19T05:36:57;20.40;99.90
8666;DHT22;4370;48.916;8.380;2022-08-19T05:39:28;21.70;99.90
8666;DHT22;4370;48.916;8.380;2022-08-19T05:42:04;20.30;99.90
8666;DHT22;4370;48.916;8.380;2022-08-19T05:44:39;20.50;99.90
8666;DHT22;4370;48.916;8.380;2022-08-19T05:47:06;21.60;99.90
8666;DHT22;4370;48.916;8.380;2022-08-19T05:52:03;20.60;99.90
8666;DHT22;4370;48.916;8.380;2022-08-19T05:54:33;20.10;99.90
8666;DHT22;4370;48.916;8.380;2022-08-19T05:57:02;20.70;99.90
8666;DHT22;4370;48.916;8.380;2022-08-19T05:59:27;20.70;99.90
8666;DHT22;4370;48.916;8.380;2022-08-19T06:01:54;20.70;99.90
8666;DHT22;4370;48.916;8.380;2022-08-19T06:04:23;20.80;99.90
8666;DHT22;4370;48.916;8.380;2022-08-19T06:06:50;20.70;99.90
8666;DHT22;4370;48.916;8.380;2022-08-19T06:09:17;20.70;99.90
8666;DHT22;4370;48.916;8.380;2022-08-19T06:11:48;20.80;99.90
8666;DHT22;4370;48.916;8.380;2022-08-19T06:14:21;20.80;99.90
8666;DHT22;4370;48.916;8.380;2022-08-19T06:16:51;20.80;99.90
8666;DHT22;4370;48.916;8.380;2022-08-19T06:19:21;20.90;99.90
8666;DHT22;4370;48.916;8.380;2022-08-19T06:21:52;21.00;99.90
8666;DHT22;4370;48.916;8.380;2022-08-19T06:24:21;21.10;99.90
8666;DHT22;4370;48.916;8.380;2022-08-19T06:29:18;21.20;99.90
8666;DHT22;4370;48.916;8.380;2022-08-19T06:31:46;22.00;99.90
8666;DHT22;4370;48.916;8.380;2022-08-19T06:34:17;21.20;99.90
8666;DHT22;4370;48.916;8.380;2022-08-19T06:36:50;21.20;99.90
8666;DHT22;4370;48.916;8.380;2022-08-19T06:39:26;21.10;99.90
8666;DHT22;4370;48.916;8.380;2022-08-19T06:41:54;21.10;99.90
8666;DHT22;4370;48.916;8.380;2022-08-19T06:44:23;21.10;99.90
8666;DHT22;4370;48.916;8.380;2022-08-19T06:46:53;20.50;99.90
8666;DHT22;4370;48.916;8.380;2022-08-19T06:49:19;21.40;99.90
8666;DHT22;4370;48.916;8.380;2022-08-19T06:51:46;20.60;99.90
8666;DHT22;4370;48.916;8.380;2022-08-19T06:54:16;21.10;99.90
8666;DHT22;4370;48.916;8.380;2022-08-19T06:56:43;21.20;99.90
8666;DHT22;4370;48.916;8.380;2022-08-19T06:59:16;21.30;99.90
8666;DHT22;4370;48.916;8.380;2022-08-19T07:01:50;21.60;99.90
8666;DHT22;4370;48.916;8.380;2022-08-19T07:04:24;21.70;99.90
8666;DHT22;4370;48.916;8.380;2022-08-19T07:07:14;21.20;99.90
8666;DHT22;4370;48.916;8.380;2022-08-19T07:09:42;22.20;99.90
8666;DHT22;4370;48.916;8.380;2022-08-19T07:12:10;21.70;99.90
8666;DHT22;4370;48.916;8.380;2022-08-19T07:14:37;22.30;99.90
8666;DHT22;4370;48.916;8.380;2022-08-19T07:17:07;23.10;99.90
8666;DHT22;4370;48.916;8.380;2022-08-19T07:19:33;22.90;99.90
8666;DHT22;4370;48.916;8.380;2022-08-19T07:22:01;23.90;99.90
8666;DHT22;4370;48.916;8.380;2022-08-19T07:24:29;23.50;99.40
8666;DHT22;4370;48.916;8.380;2022-08-19T07:26:57;24.90;99.30
8666;DHT22;4370;48.916;8.380;2022-08-19T07:29:29;23.60;98.30
8666;DHT22;4370;48.916;8.380;2022-08-19T07:31:56;22.90;97.30
8666;DHT22;4370;48.916;8.380;2022-08-19T07:34:22;22.90;94.90
8666;DHT22;4370;48.916;8.380;2022-08-19T07:39:19;23.40;93.80
8666;DHT22;4370;48.916;8.380;2022-08-19T07:41:46;23.00;93.90
8666;DHT22;4370;48.916;8.380;2022-08-19T07:44:15;23.50;94.10
8666;DHT22;4370;48.916;8.380;2022-08-19T07:46:45;22.90;93.60
8666;DHT22;4370;48.916;8.380;2022-08-19T07:49:12;23.70;93.70
8666;DHT22;4370;48.916;8.380;2022-08-19T07:51:48;23.20;93.20
8666;DHT22;4370;48.916;8.380;2022-08-19T07:54:14;24.00;93.10
8666;DHT22;4370;48.916;8.380;2022-08-19T07:56:40;24.10;92.60
8666;DHT22;4370;48.916;8.380;2022-08-19T07:59:06;23.90;92.30
8666;DHT22;4370;48.916;8.380;2022-08-19T08:01:31;24.10;92.10
8666;DHT22;4370;48.916;8.380;2022-08-19T08:03:58;23.60;91.70
8666;DHT22;4370;48.916;8.380;2022-08-19T08:06:42;24.20;91.50
8666;DHT22;4370;48.916;8.380;2022-08-19T08:09:35;24.90;92.00
8666;DHT22;4370;48.916;8.380;2022-08-19T08:12:05;24.30;91.60
8666;DHT22;4370;48.916;8.380;2022-08-19T08:14:47;24.40;91.20
8666;DHT22;4370;48.916;8.380;2022-08-19T08:17:19;24.70;90.60
8666;DHT22;4370;48.916;8.380;2022-08-19T08:19:45;26.10;90.60
8666;DHT22;4370;48.916;8.380;2022-08-19T08:22:15;25.30;97.70
8666;DHT22;4370;48.916;8.380;2022-08-19T08:25:20;25.60;88.70
8666;DHT22;4370;48.916;8.380;2022-08-19T08:27:48;26.60;84.30
8666;DHT22;4370;48.916;8.380;2022-08-19T08:30:23;26.20;81.00
8666;DHT22;4370;48.916;8.380;2022-08-19T08:32:49;26.60;79.90
8666;DHT22;4370;48.916;8.380;2022-08-19T08:35:18;26.90;73.80
8666;DHT22;4370;48.916;8.380;2022-08-19T08:37:46;26.90;74.30
8666;DHT22;4370;48.916;8.380;2022-08-19T08:40:38;27.70;72.10
8666;DHT22;4370;48.916;8.380;2022-08-19T08:45:47;27.10;70.40
8666;DHT22;4370;48.916;8.380;2022-08-19T08:48:21;27.10;68.70
8666;DHT22;4370;48.916;8.380;2022-08-19T08:50:49;27.50;87.00
8666;DHT22;4370;48.916;8.380;2022-08-19T08:53:18;28.30;67.40
8666;DHT22;4370;48.916;8.380;2022-08-19T08:55:45;27.60;64.50
8666;DHT22;4370;48.916;8.380;2022-08-19T08:58:31;28.20;64.70
8666;DHT22;4370;48.916;8.380;2022-08-19T09:01:10;27.50;62.90
8666;DHT22;4370;48.916;8.380;2022-08-19T09:03:37;27.80;61.30
8666;DHT22;4370;48.916;8.380;2022-08-19T09:06:14;27.80;61.90
8666;DHT22;4370;48.916;8.380;2022-08-19T09:12:01;28.00;61.00
8666;DHT22;4370;48.916;8.380;2022-08-19T09:14:48;28.20;59.80
8666;DHT22;4370;48.916;8.380;2022-08-19T09:17:21;28.20;59.00
8666;DHT22;4370;48.916;8.380;2022-08-19T09:20:13;28.20;58.50
8666;DHT22;4370;48.916;8.380;2022-08-19T09:22:42;28.00;58.40
8666;DHT22;4370;48.916;8.380;2022-08-19T09:25:18;28.00;58.90
8666;DHT22;4370;48.916;8.380;2022-08-19T09:27:47;28.00;59.10
8666;DHT22;4370;48.916;8.380;2022-08-19T09:30:17;28.50;59.30
8666;DHT22;4370;48.916;8.380;2022-08-19T09:32:43;28.00;58.30
8666;DHT22;4370;48.916;8.380;2022-08-19T09:35:10;28.00;58.20
8666;DHT22;4370;48.916;8.380;2022-08-19T09:37:38;28.60;58.40
8666;DHT22;4370;48.916;8.380;2022-08-19T09:40:04;28.00;57.00
8666;DHT22;4370;48.916;8.380;2022-08-19T09:42:30;27.90;57.50
8666;DHT22;4370;48.916;8.380;2022-08-19T09:44:56;27.60;57.40
8666;DHT22;4370;48.916;8.380;2022-08-19T09:47:21;27.70;57.90
8666;DHT22;4370;48.916;8.380;2022-08-19T09:49:47;28.20;58.60
8666;DHT22;4370;48.916;8.380;2022-08-19T09:54:41;27.60;58.00
8666;DHT22;4370;48.916;8.380;2022-08-19T09:57:07;27.40;77.50
8666;DHT22;4370;48.916;8.380;2022-08-19T09:59:33;26.70;58.10
8666;DHT22;4370;48.916;8.380;2022-08-19T10:01:58;27.50;58.70
8666;DHT22;4370;48.916;8.380;2022-08-19T10:04:24;27.30;58.80
8666;DHT22;4370;48.916;8.380;2022-08-19T10:07:10;28.00;59.60
8666;DHT22;4370;48.916;8.380;2022-08-19T10:09:36;28.50;60.10
8666;DHT22;4370;48.916;8.380;2022-08-19T10:12:04;27.10;58.80
8666;DHT22;4370;48.916;8.380;2022-08-19T10:14:30;27.20;58.40
8666;DHT22;4370;48.916;8.380;2022-08-19T10:16:55;27.50;57.60
8666;DHT22;4370;48.916;8.380;2022-08-19T10:24:14;27.70;55.00
8666;DHT22;4370;48.916;8.380;2022-08-19T10:26:40;26.90;55.00
8666;DHT22;4370;48.916;8.380;2022-08-19T10:29:13;27.60;55.40
8666;DHT22;4370;48.916;8.380;2022-08-19T10:31:41;28.00;56.30
8666;DHT22;4370;48.916;8.380;2022-08-19T10:34:07;27.20;56.20
8666;DHT22;4370;48.916;8.380;2022-08-19T10:36:35;27.10;56.30
8666;DHT22;4370;48.916;8.380;2022-08-19T10:39:05;27.30;56.30
8666;DHT22;4370;48.916;8.380;2022-08-19T10:41:35;27.30;78.40
8666;DHT22;4370;48.916;8.380;2022-08-19T10:44:10;27.80;56.00
8666;DHT22;4370;48.916;8.380;2022-08-19T10:46:41;27.40;55.40
8666;DHT22;4370;48.916;8.380;2022-08-19T10:49:09;27.80;55.40
8666;DHT22;4370;48.916;8.380;2022-08-19T10:51:35;28.80;55.70
8666;DHT22;4370;48.916;8.380;2022-08-19T10:56:46;28.00;53.30
8666;DHT22;4370;48.916;8.380;2022-08-19T10:59:20;28.10;53.50
8666;DHT22;4370;48.916;8.380;2022-08-19T11:01:47;29.00;53.70
8666;DHT22;4370;48.916;8.380;2022-08-19T11:04:13;27.70;51.60
8666;DHT22;4370;48.916;8.380;2022-08-19T11:06:41;28.90;52.60
8666;DHT22;4370;48.916;8.380;2022-08-19T11:11:35;28.50;51.50
8666;DHT22;4370;48.916;8.380;2022-08-19T11:14:08;28.50;52.00
8666;DHT22;4370;48.916;8.380;2022-08-19T11:16:35;28.50;52.50
8666;DHT22;4370;48.916;8.380;2022-08-19T11:19:00;27.80;52.30
8666;DHT22;4370;48.916;8.380;2022-08-19T11:21:30;28.70;51.80
8666;DHT22;4370;48.916;8.380;2022-08-19T11:24:08;28.80;50.90
8666;DHT22;4370;48.916;8.380;2022-08-19T11:26:36;29.60;51.90
8666;DHT22;4370;48.916;8.380;2022-08-19T11:29:04;28.90;51.70
8666;DHT22;4370;48.916;8.380;2022-08-19T11:31:33;28.70;70.50
8666;DHT22;4370;48.916;8.380;2022-08-19T11:34:03;28.80;51.60
8666;DHT22;4370;48.916;8.380;2022-08-19T11:36:29;27.90;51.10
8666;DHT22;4370;48.916;8.380;2022-08-19T11:38:56;28.60;51.50
8666;DHT22;4370;48.916;8.380;2022-08-19T11:41:23;28.70;51.90
8666;DHT22;4370;48.916;8.380;2022-08-19T11:43:49;28.30;51.40
8666;DHT22;4370;48.916;8.380;2022-08-19T11:46:17;28.20;52.40
8666;DHT22;4370;48.916;8.380;2022-08-19T11:48:43;28.20;52.60
8666;DHT22;4370;48.916;8.380;2022-08-19T11:51:14;28.10;53.20
8666;DHT22;4370;48.916;8.380;2022-08-19T11:53:41;28.30;52.90
8666;DHT22;4370;48.916;8.380;2022-08-19T11:56:09;28.40;52.10
8666;DHT22;4370;48.916;8.380;2022-08-19T11:58:36;29.30;53.00
8666;DHT22;4370;48.916;8.380;2022-08-19T12:01:06;28.50;51.10
8666;DHT22;4370;48.916;8.380;2022-08-19T12:03:32;28.50;51.30
8666;DHT22;4370;48.916;8.380;2022-08-19T12:05:57;28.90;51.50
8666;DHT22;4370;48.916;8.380;2022-08-19T12:08:23;28.70;51.10
8666;DHT22;4370;48.916;8.380;2022-08-19T12:10:48;28.80;51.00
8666;DHT22;4370;48.916;8.380;2022-08-19T12:13:15;29.20;51.40
8666;DHT22;4370;48.916;8.380;2022-08-19T12:15:44;28.90;51.20
8666;DHT22;4370;48.916;8.380;2022-08-19T12:18:11;29.00;51.10
8666;DHT22;4370;48.916;8.380;2022-08-19T12:20:42;29.10;69.10
8666;DHT22;4370;48.916;8.380;2022-08-19T12:23:09;29.20;50.20
8666;DHT22;4370;48.916;8.380;2022-08-19T12:25:36;29.10;50.50
8666;DHT22;4370;48.916;8.380;2022-08-19T12:28:03;29.00;50.20
8666;DHT22;4370;48.916;8.380;2022-08-19T12:32:55;29.00;49.70
8666;DHT22;4370;48.916;8.380;2022-08-19T12:35:21;29.80;50.80
8666;DHT22;4370;48.916;8.380;2022-08-19T12:37:48;28.90;50.40
8666;DHT22;4370;48.916;8.380;2022-08-19T12:40:15;28.70;50.60
8666;DHT22;4370;48.916;8.380;2022-08-19T12:45:10;28.50;50.10
8666;DHT22;4370;48.916;8.380;2022-08-19T12:47:40;28.40;50.50
8666;DHT22;4370;48.916;8.380;2022-08-19T12:50:06;28.20;50.30
8666;DHT22;4370;48.916;8.380;2022-08-19T12:52:34;28.10;50.40
8666;DHT22;4370;48.916;8.380;2022-08-19T12:55:04;28.80;51.50
8666;DHT22;4370;48.916;8.380;2022-08-19T12:57:31;27.80;51.40
8666;DHT22;4370;48.916;8.380;2022-08-19T13:00:10;28.50;52.30
8666;DHT22;4370;48.916;8.380;2022-08-19T13:02:42;27.60;51.70
8666;DHT22;4370;48.916;8.380;2022-08-19T13:05:12;27.60;51.90
8666;DHT22;4370;48.916;8.380;2022-08-19T13:07:41;27.80;51.90
8666;DHT22;4370;48.916;8.380;2022-08-19T13:10:11;27.80;52.40
8666;DHT22;4370;48.916;8.380;2022-08-19T13:12:37;28.60;52.90
8666;DHT22;4370;48.916;8.380;2022-08-19T13:15:03;28.20;52.30
8666;DHT22;4370;48.916;8.380;2022-08-19T13:17:29;28.40;70.90
8666;DHT22;4370;48.916;8.380;2022-08-19T13:19:55;28.60;51.70
8666;DHT22;4370;48.916;8.380;2022-08-19T13:22:22;28.70;51.30
8666;DHT22;4370;48.916;8.380;2022-08-19T13:24:49;28.90;51.20
8666;DHT22;4370;48.916;8.380;2022-08-19T13:29:42;29.30;50.40
8666;DHT22;4370;48.916;8.380;2022-08-19T13:32:26;29.40;50.30
8666;DHT22;4370;48.916;8.380;2022-08-19T13:35:10;29.70;49.90
8666;DHT22;4370;48.916;8.380;2022-08-19T13:37:36;29.70;49.30
8666;DHT22;4370;48.916;8.380;2022-08-19T13:40:16;30.00;48.70
8666;DHT22;4370;48.916;8.380;2022-08-19T13:42:45;30.00;47.70
8666;DHT22;4370;48.916;8.380;2022-08-19T13:45:13;30.30;44.30
8666;DHT22;4370;48.916;8.380;2022-08-19T13:47:39;30.20;44.70
8666;DHT22;4370;48.916;8.380;2022-08-19T13:50:17;30.40;43.20
8666;DHT22;4370;48.916;8.380;2022-08-19T13:52:44;30.50;42.80
8666;DHT22;4370;48.916;8.380;2022-08-19T13:55:11;30.50;42.50
8666;DHT22;4370;48.916;8.380;2022-08-19T13:57:37;30.40;41.20
8666;DHT22;4370;48.916;8.380;2022-08-19T14:00:15;30.70;40.90
8666;DHT22;4370;48.916;8.380;2022-08-19T14:02:47;30.60;40.50
8666;DHT22;4370;48.916;8.380;2022-08-19T14:05:15;30.60;40.40
8666;DHT22;4370;48.916;8.380;2022-08-19T14:07:41;30.60;40.10
8666;DHT22;4370;48.916;8.380;2022-08-19T14:10:10;30.60;39.90
8666;DHT22;4370;48.916;8.380;2022-08-19T14:12:36;30.60;39.30
8666;DHT22;4370;48.916;8.380;2022-08-19T14:15:04;30.70;39.30
8666;DHT22;4370;48.916;8.380;2022-08-19T14:17:31;30.60;39.30
8666;DHT22;4370;48.916;8.380;2022-08-19T14:20:00;30.60;39.30
8666;DHT22;4370;48.916;8.380;2022-08-19T14:22:27;30.60;39.70
8666;DHT22;4370;48.916;8.380;2022-08-19T14:24:53;30.50;39.50
8666;DHT22;4370;48.916;8.380;2022-08-19T14:27:19;30.40;40.40
8666;DHT22;4370;48.916;8.380;2022-08-19T14:29:45;30.40;40.40
8666;DHT22;4370;48.916;8.380;2022-08-19T14:37:04;30.40;39.30
8666;DHT22;4370;48.916;8.380;2022-08-19T14:39:30;30.70;39.70
8666;DHT22;4370;48.916;8.380;2022-08-19T14:44:22;30.40;39.80
8666;DHT22;4370;48.916;8.380;2022-08-19T14:46:49;30.20;40.70
8666;DHT22;4370;48.916;8.380;2022-08-19T14:49:16;30.20;41.40
8666;DHT22;4370;48.916;8.380;2022-08-19T14:51:43;30.20;41.60
8666;DHT22;4370;48.916;8.380;2022-08-19T14:56:39;29.60;41.80
8666;DHT22;4370;48.916;8.380;2022-08-19T14:59:05;29.60;42.40
8666;DHT22;4370;48.916;8.380;2022-08-19T15:01:33;29.40;42.90
8666;DHT22;4370;48.916;8.380;2022-08-19T15:03:58;29.50;43.50
8666;DHT22;4370;48.916;8.380;2022-08-19T15:06:25;29.40;43.80
8666;DHT22;4370;48.916;8.380;2022-08-19T15:08:51;28.60;43.50
8666;DHT22;4370;48.916;8.380;2022-08-19T15:11:19;29.20;44.30
8666;DHT22;4370;48.916;8.380;2022-08-19T15:13:46;28.20;44.00
8666;DHT22;4370;48.916;8.380;2022-08-19T15:16:13;28.00;44.20
8666;DHT22;4370;48.916;8.380;2022-08-19T15:18:43;27.80;44.30
8666;DHT22;4370;48.916;8.380;2022-08-19T15:21:14;27.70;44.50
8666;DHT22;4370;48.916;8.380;2022-08-19T15:23:43;27.50;44.80
8666;DHT22;4370;48.916;8.380;2022-08-19T15:26:10;27.80;45.30
8666;DHT22;4370;48.916;8.380;2022-08-19T15:28:36;27.30;45.20
8666;DHT22;4370;48.916;8.380;2022-08-19T15:31:03;27.20;45.10
8666;DHT22;4370;48.916;8.380;2022-08-19T15:33:31;27.10;45.40
8666;DHT22;4370;48.916;8.380;2022-08-19T15:35:56;27.00;45.50
8666;DHT22;4370;48.916;8.380;2022-08-19T15:38:22;26.50;45.30
8666;DHT22;4370;48.916;8.380;2022-08-19T15:40:50;27.30;45.90
8666;DHT22;4370;48.916;8.380;2022-08-19T15:43:17;27.40;45.90
8666;DHT22;4370;48.916;8.380;2022-08-19T15:45:44;27.40;45.70
8666;DHT22;4370;48.916;8.380;2022-08-19T15:48:10;26.80;45.20
8666;DHT22;4370;48.916;8.380;2022-08-19T15:50:35;26.70;64.50
8666;DHT22;4370;48.916;8.380;2022-08-19T15:53:07;27.50;45.70
8666;DHT22;4370;48.916;8.380;2022-08-19T15:55:35;26.80;45.30
8666;DHT22;4370;48.916;8.380;2022-08-19T15:58:05;26.80;45.30
8666;DHT22;4370;48.916;8.380;2022-08-19T16:00:49;26.80;45.40
8666;DHT22;4370;48.916;8.380;2022-08-19T16:03:33;27.80;46.20
8666;DHT22;4370;48.916;8.380;2022-08-19T16:06:17;27.40;45.90
8666;DHT22;4370;48.916;8.380;2022-08-19T16:09:02;27.00;45.50
8666;DHT22;4370;48.916;8.380;2022-08-19T16:11:32;27.00;44.70
8666;DHT22;4370;48.916;8.380;2022-08-19T16:13:58;27.00;45.20
8666;DHT22;4370;48.916;8.380;2022-08-19T16:16:30;27.70;45.60
8666;DHT22;4370;48.916;8.380;2022-08-19T16:18:57;27.30;45.20
8666;DHT22;4370;48.916;8.380;2022-08-19T16:21:25;27.70;45.40
8666;DHT22;4370;48.916;8.380;2022-08-19T16:23:52;27.20;45.00
8666;DHT22;4370;48.916;8.380;2022-08-19T16:26:18;27.20;45.10
8666;DHT22;4370;48.916;8.380;2022-08-19T16:28:45;27.70;45.90
8666;DHT22;4370;48.916;8.380;2022-08-19T16:31:13;27.30;45.90
8666;DHT22;4370;48.916;8.380;2022-08-19T16:33:39;27.30;46.30
8666;DHT22;4370;48.916;8.380;2022-08-19T16:36:05;27.30;46.60
8666;DHT22;4370;48.916;8.380;2022-08-19T16:38:31;27.40;46.70
8666;DHT22;4370;48.916;8.380;2022-08-19T16:40:58;27.60;46.60
8666;DHT22;4370;48.916;8.380;2022-08-19T16:43:27;27.30;46.30
8666;DHT22;4370;48.916;8.380;2022-08-19T16:45:53;27.80;46.90
8666;DHT22;4370;48.916;8.380;2022-08-19T16:48:20;26.80;46.40
8666;DHT22;4370;48.916;8.380;2022-08-19T16:50:47;27.00;66.70
8666;DHT22;4370;48.916;8.380;2022-08-19T16:53:18;27.70;47.50
8666;DHT22;4370;48.916;8.380;2022-08-19T16:55:45;27.00;47.30
8666;DHT22;4370;48.916;8.380;2022-08-19T16:58:10;27.10;47.60
8666;DHT22;4370;48.916;8.380;2022-08-19T17:00:36;27.10;67.60
8666;DHT22;4370;48.916;8.380;2022-08-19T17:03:08;27.70;48.40
8666;DHT22;4370;48.916;8.380;2022-08-19T17:05:41;27.00;48.00
8666;DHT22;4370;48.916;8.380;2022-08-19T17:08:07;26.80;48.00
8666;DHT22;4370;48.916;8.380;2022-08-19T17:10:32;27.10;67.80
8666;DHT22;4370;48.916;8.380;2022-08-19T17:12:58;26.90;48.30
8666;DHT22;4370;48.916;8.380;2022-08-19T17:15:24;27.70;48.90
8666;DHT22;4370;48.916;8.380;2022-08-19T17:17:50;26.60;48.00
8666;DHT22;4370;48.916;8.380;2022-08-19T17:20:17;27.60;48.60
8666;DHT22;4370;48.916;8.380;2022-08-19T17:22:43;27.40;48.50
8666;DHT22;4370;48.916;8.380;2022-08-19T17:25:09;26.90;48.00
8666;DHT22;4370;48.916;8.380;2022-08-19T17:27:35;27.20;48.30
8666;DHT22;4370;48.916;8.380;2022-08-19T17:30:03;27.00;47.70